<?xml version="1.0" encoding="UTF-8" standalone="no" ?>
<gpx xmlns="http://www.topografix.com/GPX/1/1" xmlns:xsi="http://www.w3.org/2001/XMLSchema-instance" xsi:schemaLocation="http://www.topografix.com/GPX/1/1 http://www.topografix.com/GPX/1/1/gpx.xsd" version="1.1" creator="VisuGPX - https://www.visugpx.com">
  <metadata>
    <name>Pointe de Trévignon</name>
    <desc><![CDATA[Allure très modérée]]></desc>
  </metadata>
  <trk>
    <name><![CDATA[Pointe de Trévignon_1]]></name>
    <trkseg>
      <trkpt lat="47.84035" lon="-3.89098">
        <ele>11.7</ele>
        <time>2016-05-11T12:33:49Z</time>
      </trkpt>
      <trkpt lat="47.84035" lon="-3.89098">
        <ele>70</ele>
        <time>2016-05-11T12:35:06Z</time>
      </trkpt>
      <trkpt lat="47.84023" lon="-3.89109">
        <ele>66</ele>
        <time>2016-05-11T12:35:17Z</time>
      </trkpt>
      <trkpt lat="47.84018" lon="-3.89151">
        <ele>63</ele>
        <time>2016-05-11T12:35:52Z</time>
      </trkpt>
      <trkpt lat="47.84024" lon="-3.89165">
        <ele>62</ele>
        <time>2016-05-11T12:36:05Z</time>
      </trkpt>
      <trkpt lat="47.84036" lon="-3.89174">
        <ele>65</ele>
        <time>2016-05-11T12:36:19Z</time>
      </trkpt>
      <trkpt lat="47.84053" lon="-3.89186">
        <ele>61</ele>
        <time>2016-05-11T12:36:36Z</time>
      </trkpt>
      <trkpt lat="47.84067" lon="-3.89199">
        <ele>63</ele>
        <time>2016-05-11T12:36:49Z</time>
      </trkpt>
      <trkpt lat="47.84084" lon="-3.89213">
        <ele>61</ele>
        <time>2016-05-11T12:37:06Z</time>
      </trkpt>
      <trkpt lat="47.84089" lon="-3.89217">
        <ele>63</ele>
        <time>2016-05-11T12:37:11Z</time>
      </trkpt>
      <trkpt lat="47.84096" lon="-3.89227">
        <ele>62</ele>
        <time>2016-05-11T12:37:24Z</time>
      </trkpt>
      <trkpt lat="47.84114" lon="-3.89252">
        <ele>66</ele>
        <time>2016-05-11T12:37:41Z</time>
      </trkpt>
      <trkpt lat="47.84125" lon="-3.89274">
        <ele>67</ele>
        <time>2016-05-11T12:37:56Z</time>
      </trkpt>
      <trkpt lat="47.8413" lon="-3.89282">
        <ele>71</ele>
        <time>2016-05-11T12:38:03Z</time>
      </trkpt>
      <trkpt lat="47.84144" lon="-3.8931">
        <ele>68</ele>
        <time>2016-05-11T12:38:22Z</time>
      </trkpt>
      <trkpt lat="47.84147" lon="-3.89333">
        <ele>61</ele>
        <time>2016-05-11T12:38:37Z</time>
      </trkpt>
      <trkpt lat="47.84145" lon="-3.89354">
        <ele>64</ele>
        <time>2016-05-11T12:38:51Z</time>
      </trkpt>
      <trkpt lat="47.84157" lon="-3.89352">
        <ele>57</ele>
        <time>2016-05-11T12:39:07Z</time>
      </trkpt>
      <trkpt lat="47.84174" lon="-3.8936">
        <ele>52</ele>
        <time>2016-05-11T12:39:23Z</time>
      </trkpt>
      <trkpt lat="47.84189" lon="-3.8937">
        <ele>51</ele>
        <time>2016-05-11T12:39:37Z</time>
      </trkpt>
      <trkpt lat="47.84207" lon="-3.89377">
        <ele>52</ele>
        <time>2016-05-11T12:39:55Z</time>
      </trkpt>
      <trkpt lat="47.8422" lon="-3.89388">
        <ele>50</ele>
        <time>2016-05-11T12:40:12Z</time>
      </trkpt>
      <trkpt lat="47.84237" lon="-3.89413">
        <ele>53</ele>
        <time>2016-05-11T12:40:30Z</time>
      </trkpt>
      <trkpt lat="47.84254" lon="-3.89415">
        <ele>51</ele>
        <time>2016-05-11T12:40:46Z</time>
      </trkpt>
      <trkpt lat="47.84269" lon="-3.89415">
        <ele>46</ele>
        <time>2016-05-11T12:41:01Z</time>
      </trkpt>
      <trkpt lat="47.84285" lon="-3.89413">
        <ele>48</ele>
        <time>2016-05-11T12:41:16Z</time>
      </trkpt>
      <trkpt lat="47.84308" lon="-3.89411">
        <ele>48</ele>
        <time>2016-05-11T12:41:36Z</time>
      </trkpt>
      <trkpt lat="47.84325" lon="-3.89414">
        <ele>45</ele>
        <time>2016-05-11T12:41:52Z</time>
      </trkpt>
      <trkpt lat="47.8434" lon="-3.89412">
        <ele>44</ele>
        <time>2016-05-11T12:42:05Z</time>
      </trkpt>
      <trkpt lat="47.84353" lon="-3.89412">
        <ele>47</ele>
        <time>2016-05-11T12:42:18Z</time>
      </trkpt>
      <trkpt lat="47.84376" lon="-3.89427">
        <ele>50</ele>
        <time>2016-05-11T12:42:38Z</time>
      </trkpt>
      <trkpt lat="47.84398" lon="-3.89445">
        <ele>51</ele>
        <time>2016-05-11T12:42:59Z</time>
      </trkpt>
      <trkpt lat="47.84403" lon="-3.89424">
        <ele>46</ele>
        <time>2016-05-11T12:43:15Z</time>
      </trkpt>
      <trkpt lat="47.84404" lon="-3.89396">
        <ele>45</ele>
        <time>2016-05-11T12:43:32Z</time>
      </trkpt>
      <trkpt lat="47.84416" lon="-3.89389">
        <ele>46</ele>
        <time>2016-05-11T12:43:50Z</time>
      </trkpt>
      <trkpt lat="47.84436" lon="-3.89376">
        <ele>49</ele>
        <time>2016-05-11T12:44:08Z</time>
      </trkpt>
      <trkpt lat="47.8445" lon="-3.89363">
        <ele>50</ele>
        <time>2016-05-11T12:44:23Z</time>
      </trkpt>
      <trkpt lat="47.84467" lon="-3.89351">
        <ele>51</ele>
        <time>2016-05-11T12:44:39Z</time>
      </trkpt>
      <trkpt lat="47.84483" lon="-3.89336">
        <ele>49</ele>
        <time>2016-05-11T12:44:57Z</time>
      </trkpt>
      <trkpt lat="47.84497" lon="-3.89324">
        <ele>50</ele>
        <time>2016-05-11T12:45:11Z</time>
      </trkpt>
      <trkpt lat="47.84516" lon="-3.8932">
        <ele>53</ele>
        <time>2016-05-11T12:45:30Z</time>
      </trkpt>
      <trkpt lat="47.84533" lon="-3.89325">
        <ele>52</ele>
        <time>2016-05-11T12:45:47Z</time>
      </trkpt>
      <trkpt lat="47.84542" lon="-3.89322">
        <ele>50</ele>
        <time>2016-05-11T12:45:54Z</time>
      </trkpt>
      <trkpt lat="47.84551" lon="-3.8932">
        <ele>49</ele>
        <time>2016-05-11T12:46:03Z</time>
      </trkpt>
      <trkpt lat="47.84565" lon="-3.89311">
        <ele>49</ele>
        <time>2016-05-11T12:46:14Z</time>
      </trkpt>
      <trkpt lat="47.84579" lon="-3.89307">
        <ele>50</ele>
        <time>2016-05-11T12:46:27Z</time>
      </trkpt>
      <trkpt lat="47.84595" lon="-3.89297">
        <ele>49</ele>
        <time>2016-05-11T12:46:42Z</time>
      </trkpt>
      <trkpt lat="47.84614" lon="-3.89291">
        <ele>48</ele>
        <time>2016-05-11T12:47:01Z</time>
      </trkpt>
      <trkpt lat="47.8463" lon="-3.89295">
        <ele>47</ele>
        <time>2016-05-11T12:47:18Z</time>
      </trkpt>
      <trkpt lat="47.84649" lon="-3.89309">
        <ele>49</ele>
        <time>2016-05-11T12:47:35Z</time>
      </trkpt>
      <trkpt lat="47.84661" lon="-3.89331">
        <ele>47</ele>
        <time>2016-05-11T12:47:50Z</time>
      </trkpt>
      <trkpt lat="47.84668" lon="-3.8935">
        <ele>49</ele>
        <time>2016-05-11T12:48:02Z</time>
      </trkpt>
      <trkpt lat="47.84668" lon="-3.89373">
        <ele>47</ele>
        <time>2016-05-11T12:48:17Z</time>
      </trkpt>
      <trkpt lat="47.84678" lon="-3.89398">
        <ele>49</ele>
        <time>2016-05-11T12:48:35Z</time>
      </trkpt>
      <trkpt lat="47.84692" lon="-3.89416">
        <ele>51</ele>
        <time>2016-05-11T12:48:53Z</time>
      </trkpt>
      <trkpt lat="47.84699" lon="-3.89422">
        <ele>51</ele>
        <time>2016-05-11T12:48:59Z</time>
      </trkpt>
      <trkpt lat="47.84709" lon="-3.89432">
        <ele>53</ele>
        <time>2016-05-11T12:49:12Z</time>
      </trkpt>
      <trkpt lat="47.84717" lon="-3.89446">
        <ele>54</ele>
        <time>2016-05-11T12:49:25Z</time>
      </trkpt>
      <trkpt lat="47.84721" lon="-3.89465">
        <ele>51</ele>
        <time>2016-05-11T12:49:37Z</time>
      </trkpt>
      <trkpt lat="47.84724" lon="-3.89485">
        <ele>50</ele>
        <time>2016-05-11T12:49:49Z</time>
      </trkpt>
      <trkpt lat="47.84719" lon="-3.89508">
        <ele>50</ele>
        <time>2016-05-11T12:50:06Z</time>
      </trkpt>
      <trkpt lat="47.84709" lon="-3.89522">
        <ele>51</ele>
        <time>2016-05-11T12:50:21Z</time>
      </trkpt>
      <trkpt lat="47.84701" lon="-3.89538">
        <ele>50</ele>
        <time>2016-05-11T12:50:36Z</time>
      </trkpt>
      <trkpt lat="47.84693" lon="-3.89551">
        <ele>52</ele>
        <time>2016-05-11T12:50:46Z</time>
      </trkpt>
      <trkpt lat="47.84691" lon="-3.89573">
        <ele>53</ele>
        <time>2016-05-11T12:51:00Z</time>
      </trkpt>
      <trkpt lat="47.84689" lon="-3.89597">
        <ele>53</ele>
        <time>2016-05-11T12:51:16Z</time>
      </trkpt>
      <trkpt lat="47.84676" lon="-3.89612">
        <ele>52</ele>
        <time>2016-05-11T12:51:31Z</time>
      </trkpt>
      <trkpt lat="47.84681" lon="-3.89635">
        <ele>51</ele>
        <time>2016-05-11T12:51:44Z</time>
      </trkpt>
      <trkpt lat="47.84688" lon="-3.89656">
        <ele>53</ele>
        <time>2016-05-11T12:51:58Z</time>
      </trkpt>
      <trkpt lat="47.84694" lon="-3.89677">
        <ele>50</ele>
        <time>2016-05-11T12:52:11Z</time>
      </trkpt>
      <trkpt lat="47.84689" lon="-3.89707">
        <ele>49</ele>
        <time>2016-05-11T12:52:31Z</time>
      </trkpt>
      <trkpt lat="47.84682" lon="-3.89729">
        <ele>48</ele>
        <time>2016-05-11T12:52:47Z</time>
      </trkpt>
      <trkpt lat="47.84677" lon="-3.89743">
        <ele>50</ele>
        <time>2016-05-11T12:52:58Z</time>
      </trkpt>
      <trkpt lat="47.84671" lon="-3.89765">
        <ele>52</ele>
        <time>2016-05-11T12:53:17Z</time>
      </trkpt>
      <trkpt lat="47.84666" lon="-3.89789">
        <ele>50</ele>
        <time>2016-05-11T12:53:32Z</time>
      </trkpt>
      <trkpt lat="47.84676" lon="-3.89805">
        <ele>50</ele>
        <time>2016-05-11T12:53:49Z</time>
      </trkpt>
      <trkpt lat="47.84679" lon="-3.89824">
        <ele>49</ele>
        <time>2016-05-11T12:54:06Z</time>
      </trkpt>
      <trkpt lat="47.84674" lon="-3.89837">
        <ele>52</ele>
        <time>2016-05-11T12:54:19Z</time>
      </trkpt>
      <trkpt lat="47.84668" lon="-3.89858">
        <ele>52</ele>
        <time>2016-05-11T12:54:31Z</time>
      </trkpt>
      <trkpt lat="47.84655" lon="-3.89869">
        <ele>53</ele>
        <time>2016-05-11T12:54:45Z</time>
      </trkpt>
      <trkpt lat="47.84638" lon="-3.89882">
        <ele>55</ele>
        <time>2016-05-11T12:55:02Z</time>
      </trkpt>
      <trkpt lat="47.84622" lon="-3.89889">
        <ele>55</ele>
        <time>2016-05-11T12:55:16Z</time>
      </trkpt>
      <trkpt lat="47.84602" lon="-3.89896">
        <ele>56</ele>
        <time>2016-05-11T12:55:34Z</time>
      </trkpt>
      <trkpt lat="47.8459" lon="-3.89902">
        <ele>56</ele>
        <time>2016-05-11T12:55:47Z</time>
      </trkpt>
      <trkpt lat="47.84571" lon="-3.89893">
        <ele>54</ele>
        <time>2016-05-11T12:56:04Z</time>
      </trkpt>
      <trkpt lat="47.84554" lon="-3.89883">
        <ele>53</ele>
        <time>2016-05-11T12:56:20Z</time>
      </trkpt>
      <trkpt lat="47.84538" lon="-3.8988">
        <ele>53</ele>
        <time>2016-05-11T12:56:35Z</time>
      </trkpt>
      <trkpt lat="47.84521" lon="-3.89879">
        <ele>52</ele>
        <time>2016-05-11T12:56:52Z</time>
      </trkpt>
      <trkpt lat="47.84499" lon="-3.89877">
        <ele>54</ele>
        <time>2016-05-11T12:57:07Z</time>
      </trkpt>
      <trkpt lat="47.84486" lon="-3.89874">
        <ele>55</ele>
        <time>2016-05-11T12:57:17Z</time>
      </trkpt>
      <trkpt lat="47.84467" lon="-3.89868">
        <ele>55</ele>
        <time>2016-05-11T12:57:34Z</time>
      </trkpt>
      <trkpt lat="47.84451" lon="-3.8987">
        <ele>54</ele>
        <time>2016-05-11T12:57:50Z</time>
      </trkpt>
      <trkpt lat="47.84439" lon="-3.8986">
        <ele>51</ele>
        <time>2016-05-11T12:58:06Z</time>
      </trkpt>
      <trkpt lat="47.84424" lon="-3.89843">
        <ele>53</ele>
        <time>2016-05-11T12:58:23Z</time>
      </trkpt>
      <trkpt lat="47.84423" lon="-3.89835">
        <ele>54</ele>
        <time>2016-05-11T12:58:27Z</time>
      </trkpt>
      <trkpt lat="47.8442" lon="-3.89826">
        <ele>52</ele>
        <time>2016-05-11T12:58:42Z</time>
      </trkpt>
      <trkpt lat="47.8441" lon="-3.89815">
        <ele>52</ele>
        <time>2016-05-11T12:58:53Z</time>
      </trkpt>
      <trkpt lat="47.84396" lon="-3.89804">
        <ele>53</ele>
        <time>2016-05-11T12:59:08Z</time>
      </trkpt>
      <trkpt lat="47.84383" lon="-3.89803">
        <ele>53</ele>
        <time>2016-05-11T12:59:24Z</time>
      </trkpt>
      <trkpt lat="47.84373" lon="-3.89809">
        <ele>51</ele>
        <time>2016-05-11T12:59:36Z</time>
      </trkpt>
      <trkpt lat="47.84356" lon="-3.89806">
        <ele>50</ele>
        <time>2016-05-11T12:59:51Z</time>
      </trkpt>
      <trkpt lat="47.84346" lon="-3.89808">
        <ele>50</ele>
        <time>2016-05-11T13:00:02Z</time>
      </trkpt>
      <trkpt lat="47.84339" lon="-3.89803">
        <ele>53</ele>
        <time>2016-05-11T13:00:18Z</time>
      </trkpt>
      <trkpt lat="47.84339" lon="-3.89778">
        <ele>53</ele>
        <time>2016-05-11T13:00:37Z</time>
      </trkpt>
      <trkpt lat="47.84331" lon="-3.89771">
        <ele>52</ele>
        <time>2016-05-11T13:00:46Z</time>
      </trkpt>
      <trkpt lat="47.84315" lon="-3.89769">
        <ele>54</ele>
        <time>2016-05-11T13:00:58Z</time>
      </trkpt>
      <trkpt lat="47.84297" lon="-3.89764">
        <ele>54</ele>
        <time>2016-05-11T13:01:13Z</time>
      </trkpt>
      <trkpt lat="47.84276" lon="-3.89755">
        <ele>54</ele>
        <time>2016-05-11T13:01:30Z</time>
      </trkpt>
      <trkpt lat="47.84257" lon="-3.89752">
        <ele>54</ele>
        <time>2016-05-11T13:01:45Z</time>
      </trkpt>
      <trkpt lat="47.84241" lon="-3.8975">
        <ele>53</ele>
        <time>2016-05-11T13:01:59Z</time>
      </trkpt>
      <trkpt lat="47.84228" lon="-3.89746">
        <ele>57</ele>
        <time>2016-05-11T13:02:10Z</time>
      </trkpt>
      <trkpt lat="47.84222" lon="-3.89771">
        <ele>55</ele>
        <time>2016-05-11T13:02:25Z</time>
      </trkpt>
      <trkpt lat="47.84215" lon="-3.89792">
        <ele>55</ele>
        <time>2016-05-11T13:02:40Z</time>
      </trkpt>
      <trkpt lat="47.84199" lon="-3.898">
        <ele>55</ele>
        <time>2016-05-11T13:02:56Z</time>
      </trkpt>
      <trkpt lat="47.84181" lon="-3.89803">
        <ele>55</ele>
        <time>2016-05-11T13:03:12Z</time>
      </trkpt>
      <trkpt lat="47.84164" lon="-3.89779">
        <ele>55</ele>
        <time>2016-05-11T13:03:30Z</time>
      </trkpt>
      <trkpt lat="47.8416" lon="-3.89754">
        <ele>54</ele>
        <time>2016-05-11T13:03:47Z</time>
      </trkpt>
      <trkpt lat="47.8416" lon="-3.89749">
        <ele>54</ele>
        <time>2016-05-11T13:03:50Z</time>
      </trkpt>
      <trkpt lat="47.8416" lon="-3.89754">
        <ele>54</ele>
        <time>2016-05-11T13:03:58Z</time>
      </trkpt>
      <trkpt lat="47.84141" lon="-3.89752">
        <ele>54</ele>
        <time>2016-05-11T13:05:06Z</time>
      </trkpt>
      <trkpt lat="47.84132" lon="-3.89745">
        <ele>52</ele>
        <time>2016-05-11T13:05:14Z</time>
      </trkpt>
      <trkpt lat="47.84117" lon="-3.89738">
        <ele>52</ele>
        <time>2016-05-11T13:05:27Z</time>
      </trkpt>
      <trkpt lat="47.84096" lon="-3.89735">
        <ele>51</ele>
        <time>2016-05-11T13:05:45Z</time>
      </trkpt>
      <trkpt lat="47.84082" lon="-3.89743">
        <ele>52</ele>
        <time>2016-05-11T13:05:58Z</time>
      </trkpt>
      <trkpt lat="47.84069" lon="-3.89761">
        <ele>53</ele>
        <time>2016-05-11T13:06:18Z</time>
      </trkpt>
      <trkpt lat="47.84069" lon="-3.89792">
        <ele>52</ele>
        <time>2016-05-11T13:06:35Z</time>
      </trkpt>
      <trkpt lat="47.84071" lon="-3.89823">
        <ele>53</ele>
        <time>2016-05-11T13:06:55Z</time>
      </trkpt>
      <trkpt lat="47.84069" lon="-3.89853">
        <ele>56</ele>
        <time>2016-05-11T13:07:12Z</time>
      </trkpt>
      <trkpt lat="47.84069" lon="-3.89867">
        <ele>56</ele>
        <time>2016-05-11T13:07:19Z</time>
      </trkpt>
      <trkpt lat="47.84068" lon="-3.89894">
        <ele>56</ele>
        <time>2016-05-11T13:07:36Z</time>
      </trkpt>
      <trkpt lat="47.84059" lon="-3.89923">
        <ele>56</ele>
        <time>2016-05-11T13:07:53Z</time>
      </trkpt>
      <trkpt lat="47.84054" lon="-3.89936">
        <ele>54</ele>
        <time>2016-05-11T13:08:01Z</time>
      </trkpt>
      <trkpt lat="47.84048" lon="-3.89959">
        <ele>54</ele>
        <time>2016-05-11T13:08:14Z</time>
      </trkpt>
      <trkpt lat="47.84034" lon="-3.89988">
        <ele>52</ele>
        <time>2016-05-11T13:08:31Z</time>
      </trkpt>
      <trkpt lat="47.84028" lon="-3.90008">
        <ele>53</ele>
        <time>2016-05-11T13:08:44Z</time>
      </trkpt>
      <trkpt lat="47.84018" lon="-3.90034">
        <ele>51</ele>
        <time>2016-05-11T13:09:00Z</time>
      </trkpt>
      <trkpt lat="47.84014" lon="-3.90063">
        <ele>54</ele>
        <time>2016-05-11T13:09:15Z</time>
      </trkpt>
      <trkpt lat="47.84013" lon="-3.90086">
        <ele>55</ele>
        <time>2016-05-11T13:09:27Z</time>
      </trkpt>
      <trkpt lat="47.84007" lon="-3.90114">
        <ele>53</ele>
        <time>2016-05-11T13:09:46Z</time>
      </trkpt>
      <trkpt lat="47.8399" lon="-3.90118">
        <ele>50</ele>
        <time>2016-05-11T13:10:01Z</time>
      </trkpt>
      <trkpt lat="47.8398" lon="-3.90118">
        <ele>52</ele>
        <time>2016-05-11T13:10:09Z</time>
      </trkpt>
      <trkpt lat="47.83973" lon="-3.90127">
        <ele>52</ele>
        <time>2016-05-11T13:10:25Z</time>
      </trkpt>
      <trkpt lat="47.8396" lon="-3.90128">
        <ele>54</ele>
        <time>2016-05-11T13:10:36Z</time>
      </trkpt>
      <trkpt lat="47.83943" lon="-3.90128">
        <ele>55</ele>
        <time>2016-05-11T13:10:51Z</time>
      </trkpt>
      <trkpt lat="47.83928" lon="-3.90126">
        <ele>54</ele>
        <time>2016-05-11T13:11:05Z</time>
      </trkpt>
      <trkpt lat="47.83918" lon="-3.90122">
        <ele>52</ele>
        <time>2016-05-11T13:11:17Z</time>
      </trkpt>
      <trkpt lat="47.83902" lon="-3.90116">
        <ele>53</ele>
        <time>2016-05-11T13:11:34Z</time>
      </trkpt>
      <trkpt lat="47.83876" lon="-3.90106">
        <ele>52</ele>
        <time>2016-05-11T13:11:54Z</time>
      </trkpt>
      <trkpt lat="47.83861" lon="-3.901">
        <ele>51</ele>
        <time>2016-05-11T13:12:06Z</time>
      </trkpt>
      <trkpt lat="47.83848" lon="-3.90093">
        <ele>51</ele>
        <time>2016-05-11T13:12:19Z</time>
      </trkpt>
      <trkpt lat="47.8383" lon="-3.90085">
        <ele>53</ele>
        <time>2016-05-11T13:12:34Z</time>
      </trkpt>
      <trkpt lat="47.83815" lon="-3.90081">
        <ele>54</ele>
        <time>2016-05-11T13:12:46Z</time>
      </trkpt>
      <trkpt lat="47.83794" lon="-3.90071">
        <ele>53</ele>
        <time>2016-05-11T13:13:04Z</time>
      </trkpt>
      <trkpt lat="47.83779" lon="-3.90065">
        <ele>53</ele>
        <time>2016-05-11T13:13:16Z</time>
      </trkpt>
      <trkpt lat="47.83763" lon="-3.90058">
        <ele>52</ele>
        <time>2016-05-11T13:13:31Z</time>
      </trkpt>
      <trkpt lat="47.83741" lon="-3.90059">
        <ele>52</ele>
        <time>2016-05-11T13:13:47Z</time>
      </trkpt>
      <trkpt lat="47.83727" lon="-3.90061">
        <ele>52</ele>
        <time>2016-05-11T13:13:59Z</time>
      </trkpt>
      <trkpt lat="47.83705" lon="-3.90072">
        <ele>54</ele>
        <time>2016-05-11T13:14:17Z</time>
      </trkpt>
      <trkpt lat="47.83694" lon="-3.90079">
        <ele>53</ele>
        <time>2016-05-11T13:14:27Z</time>
      </trkpt>
      <trkpt lat="47.83674" lon="-3.90092">
        <ele>52</ele>
        <time>2016-05-11T13:14:44Z</time>
      </trkpt>
      <trkpt lat="47.83668" lon="-3.90111">
        <ele>51</ele>
        <time>2016-05-11T13:14:55Z</time>
      </trkpt>
      <trkpt lat="47.83665" lon="-3.90124">
        <ele>49</ele>
        <time>2016-05-11T13:15:07Z</time>
      </trkpt>
      <trkpt lat="47.83652" lon="-3.9014">
        <ele>49</ele>
        <time>2016-05-11T13:15:24Z</time>
      </trkpt>
      <trkpt lat="47.83642" lon="-3.90151">
        <ele>51</ele>
        <time>2016-05-11T13:15:40Z</time>
      </trkpt>
      <trkpt lat="47.83631" lon="-3.90171">
        <ele>51</ele>
        <time>2016-05-11T13:15:54Z</time>
      </trkpt>
      <trkpt lat="47.83624" lon="-3.90183">
        <ele>51</ele>
        <time>2016-05-11T13:16:03Z</time>
      </trkpt>
      <trkpt lat="47.83619" lon="-3.90197">
        <ele>52</ele>
        <time>2016-05-11T13:16:12Z</time>
      </trkpt>
      <trkpt lat="47.83606" lon="-3.90214">
        <ele>53</ele>
        <time>2016-05-11T13:16:28Z</time>
      </trkpt>
      <trkpt lat="47.83588" lon="-3.90223">
        <ele>54</ele>
        <time>2016-05-11T13:16:45Z</time>
      </trkpt>
      <trkpt lat="47.83583" lon="-3.90239">
        <ele>52</ele>
        <time>2016-05-11T13:16:57Z</time>
      </trkpt>
      <trkpt lat="47.83577" lon="-3.90232">
        <ele>51</ele>
        <time>2016-05-11T13:17:06Z</time>
      </trkpt>
      <trkpt lat="47.83566" lon="-3.90211">
        <ele>52</ele>
        <time>2016-05-11T13:17:24Z</time>
      </trkpt>
      <trkpt lat="47.83551" lon="-3.90197">
        <ele>49</ele>
        <time>2016-05-11T13:17:40Z</time>
      </trkpt>
      <trkpt lat="47.83529" lon="-3.90191">
        <ele>52</ele>
        <time>2016-05-11T13:17:59Z</time>
      </trkpt>
      <trkpt lat="47.8351" lon="-3.90177">
        <ele>52</ele>
        <time>2016-05-11T13:18:18Z</time>
      </trkpt>
      <trkpt lat="47.83494" lon="-3.90162">
        <ele>51</ele>
        <time>2016-05-11T13:18:34Z</time>
      </trkpt>
      <trkpt lat="47.83481" lon="-3.9015">
        <ele>53</ele>
        <time>2016-05-11T13:18:48Z</time>
      </trkpt>
      <trkpt lat="47.83468" lon="-3.9015">
        <ele>50</ele>
        <time>2016-05-11T13:19:00Z</time>
      </trkpt>
      <trkpt lat="47.83453" lon="-3.90152">
        <ele>50</ele>
        <time>2016-05-11T13:19:15Z</time>
      </trkpt>
      <trkpt lat="47.83443" lon="-3.9016">
        <ele>50</ele>
        <time>2016-05-11T13:19:30Z</time>
      </trkpt>
      <trkpt lat="47.83443" lon="-3.90153">
        <ele>48</ele>
        <time>2016-05-11T13:19:38Z</time>
      </trkpt>
      <trkpt lat="47.83445" lon="-3.90127">
        <ele>45</ele>
        <time>2016-05-11T13:19:57Z</time>
      </trkpt>
      <trkpt lat="47.83446" lon="-3.90099">
        <ele>44</ele>
        <time>2016-05-11T13:20:13Z</time>
      </trkpt>
      <trkpt lat="47.83445" lon="-3.90076">
        <ele>45</ele>
        <time>2016-05-11T13:20:29Z</time>
      </trkpt>
      <trkpt lat="47.8344" lon="-3.90057">
        <ele>47</ele>
        <time>2016-05-11T13:20:39Z</time>
      </trkpt>
      <trkpt lat="47.83434" lon="-3.90041">
        <ele>46</ele>
        <time>2016-05-11T13:20:57Z</time>
      </trkpt>
      <trkpt lat="47.83434" lon="-3.90041">
        <ele>46</ele>
        <time>2016-05-11T13:24:03Z</time>
      </trkpt>
      <trkpt lat="47.83428" lon="-3.90016">
        <ele>49</ele>
        <time>2016-05-11T13:24:42Z</time>
      </trkpt>
      <trkpt lat="47.83434" lon="-3.89994">
        <ele>46</ele>
        <time>2016-05-11T13:24:58Z</time>
      </trkpt>
      <trkpt lat="47.83435" lon="-3.89969">
        <ele>48</ele>
        <time>2016-05-11T13:25:14Z</time>
      </trkpt>
      <trkpt lat="47.83428" lon="-3.89938">
        <ele>50</ele>
        <time>2016-05-11T13:25:29Z</time>
      </trkpt>
      <trkpt lat="47.83422" lon="-3.89912">
        <ele>51</ele>
        <time>2016-05-11T13:25:45Z</time>
      </trkpt>
      <trkpt lat="47.83416" lon="-3.89888">
        <ele>49</ele>
        <time>2016-05-11T13:26:01Z</time>
      </trkpt>
      <trkpt lat="47.83407" lon="-3.89862">
        <ele>49</ele>
        <time>2016-05-11T13:26:18Z</time>
      </trkpt>
      <trkpt lat="47.83398" lon="-3.89839">
        <ele>48</ele>
        <time>2016-05-11T13:26:34Z</time>
      </trkpt>
      <trkpt lat="47.83388" lon="-3.89813">
        <ele>47</ele>
        <time>2016-05-11T13:26:51Z</time>
      </trkpt>
      <trkpt lat="47.8338" lon="-3.89791">
        <ele>46</ele>
        <time>2016-05-11T13:27:06Z</time>
      </trkpt>
      <trkpt lat="47.83381" lon="-3.89759">
        <ele>46</ele>
        <time>2016-05-11T13:27:25Z</time>
      </trkpt>
      <trkpt lat="47.83379" lon="-3.89725">
        <ele>48</ele>
        <time>2016-05-11T13:27:44Z</time>
      </trkpt>
      <trkpt lat="47.83382" lon="-3.89692">
        <ele>47</ele>
        <time>2016-05-11T13:28:03Z</time>
      </trkpt>
      <trkpt lat="47.83387" lon="-3.89661">
        <ele>43</ele>
        <time>2016-05-11T13:28:22Z</time>
      </trkpt>
      <trkpt lat="47.83394" lon="-3.89644">
        <ele>45</ele>
        <time>2016-05-11T13:28:33Z</time>
      </trkpt>
      <trkpt lat="47.83397" lon="-3.89618">
        <ele>49</ele>
        <time>2016-05-11T13:28:49Z</time>
      </trkpt>
      <trkpt lat="47.834" lon="-3.89592">
        <ele>50</ele>
        <time>2016-05-11T13:29:04Z</time>
      </trkpt>
      <trkpt lat="47.83401" lon="-3.89562">
        <ele>50</ele>
        <time>2016-05-11T13:29:20Z</time>
      </trkpt>
      <trkpt lat="47.83395" lon="-3.89534">
        <ele>49</ele>
        <time>2016-05-11T13:29:36Z</time>
      </trkpt>
      <trkpt lat="47.83385" lon="-3.89507">
        <ele>52</ele>
        <time>2016-05-11T13:29:53Z</time>
      </trkpt>
      <trkpt lat="47.83374" lon="-3.89488">
        <ele>53</ele>
        <time>2016-05-11T13:30:08Z</time>
      </trkpt>
      <trkpt lat="47.83367" lon="-3.8946">
        <ele>52</ele>
        <time>2016-05-11T13:30:25Z</time>
      </trkpt>
      <trkpt lat="47.83363" lon="-3.89442">
        <ele>50</ele>
        <time>2016-05-11T13:30:35Z</time>
      </trkpt>
      <trkpt lat="47.83363" lon="-3.89419">
        <ele>50</ele>
        <time>2016-05-11T13:30:48Z</time>
      </trkpt>
      <trkpt lat="47.8336" lon="-3.89385">
        <ele>52</ele>
        <time>2016-05-11T13:31:06Z</time>
      </trkpt>
      <trkpt lat="47.83357" lon="-3.89356">
        <ele>51</ele>
        <time>2016-05-11T13:31:24Z</time>
      </trkpt>
      <trkpt lat="47.8335" lon="-3.89327">
        <ele>51</ele>
        <time>2016-05-11T13:31:41Z</time>
      </trkpt>
      <trkpt lat="47.8334" lon="-3.89305">
        <ele>50</ele>
        <time>2016-05-11T13:31:58Z</time>
      </trkpt>
      <trkpt lat="47.83319" lon="-3.89299">
        <ele>52</ele>
        <time>2016-05-11T13:32:15Z</time>
      </trkpt>
      <trkpt lat="47.83304" lon="-3.89285">
        <ele>53</ele>
        <time>2016-05-11T13:32:30Z</time>
      </trkpt>
      <trkpt lat="47.83291" lon="-3.89269">
        <ele>54</ele>
        <time>2016-05-11T13:32:44Z</time>
      </trkpt>
      <trkpt lat="47.83278" lon="-3.8925">
        <ele>53</ele>
        <time>2016-05-11T13:32:59Z</time>
      </trkpt>
      <trkpt lat="47.83267" lon="-3.89235">
        <ele>53</ele>
        <time>2016-05-11T13:33:11Z</time>
      </trkpt>
      <trkpt lat="47.8326" lon="-3.89222">
        <ele>53</ele>
        <time>2016-05-11T13:33:21Z</time>
      </trkpt>
      <trkpt lat="47.83246" lon="-3.89201">
        <ele>51</ele>
        <time>2016-05-11T13:33:37Z</time>
      </trkpt>
      <trkpt lat="47.83235" lon="-3.89185">
        <ele>54</ele>
        <time>2016-05-11T13:33:49Z</time>
      </trkpt>
      <trkpt lat="47.83223" lon="-3.89171">
        <ele>55</ele>
        <time>2016-05-11T13:34:01Z</time>
      </trkpt>
      <trkpt lat="47.83215" lon="-3.89161">
        <ele>53</ele>
        <time>2016-05-11T13:34:10Z</time>
      </trkpt>
      <trkpt lat="47.83204" lon="-3.89153">
        <ele>54</ele>
        <time>2016-05-11T13:34:20Z</time>
      </trkpt>
      <trkpt lat="47.83192" lon="-3.89145">
        <ele>55</ele>
        <time>2016-05-11T13:34:31Z</time>
      </trkpt>
      <trkpt lat="47.83179" lon="-3.89134">
        <ele>54</ele>
        <time>2016-05-11T13:34:43Z</time>
      </trkpt>
      <trkpt lat="47.83166" lon="-3.89121">
        <ele>54</ele>
        <time>2016-05-11T13:34:56Z</time>
      </trkpt>
      <trkpt lat="47.83148" lon="-3.89102">
        <ele>54</ele>
        <time>2016-05-11T13:35:15Z</time>
      </trkpt>
      <trkpt lat="47.83134" lon="-3.89109">
        <ele>55</ele>
        <time>2016-05-11T13:35:29Z</time>
      </trkpt>
      <trkpt lat="47.83132" lon="-3.89112">
        <ele>54</ele>
        <time>2016-05-11T13:35:36Z</time>
      </trkpt>
      <trkpt lat="47.83132" lon="-3.89115">
        <ele>53</ele>
        <time>2016-05-11T13:35:44Z</time>
      </trkpt>
      <trkpt lat="47.8313" lon="-3.89136">
        <ele>50</ele>
        <time>2016-05-11T13:36:41Z</time>
      </trkpt>
      <trkpt lat="47.83122" lon="-3.89161">
        <ele>51</ele>
        <time>2016-05-11T13:36:59Z</time>
      </trkpt>
      <trkpt lat="47.83112" lon="-3.89178">
        <ele>51</ele>
        <time>2016-05-11T13:37:13Z</time>
      </trkpt>
      <trkpt lat="47.83093" lon="-3.89179">
        <ele>53</ele>
        <time>2016-05-11T13:37:30Z</time>
      </trkpt>
      <trkpt lat="47.83079" lon="-3.89166">
        <ele>55</ele>
        <time>2016-05-11T13:37:45Z</time>
      </trkpt>
      <trkpt lat="47.83075" lon="-3.89143">
        <ele>52</ele>
        <time>2016-05-11T13:38:00Z</time>
      </trkpt>
      <trkpt lat="47.83076" lon="-3.8911">
        <ele>52</ele>
        <time>2016-05-11T13:38:18Z</time>
      </trkpt>
      <trkpt lat="47.83077" lon="-3.8909">
        <ele>51</ele>
        <time>2016-05-11T13:38:32Z</time>
      </trkpt>
      <trkpt lat="47.83062" lon="-3.89078">
        <ele>53</ele>
        <time>2016-05-11T13:38:46Z</time>
      </trkpt>
      <trkpt lat="47.83044" lon="-3.89064">
        <ele>55</ele>
        <time>2016-05-11T13:39:03Z</time>
      </trkpt>
      <trkpt lat="47.83036" lon="-3.89041">
        <ele>54</ele>
        <time>2016-05-11T13:39:17Z</time>
      </trkpt>
      <trkpt lat="47.83027" lon="-3.89019">
        <ele>54</ele>
        <time>2016-05-11T13:39:32Z</time>
      </trkpt>
      <trkpt lat="47.83017" lon="-3.88999">
        <ele>55</ele>
        <time>2016-05-11T13:39:48Z</time>
      </trkpt>
      <trkpt lat="47.83005" lon="-3.88979">
        <ele>55</ele>
        <time>2016-05-11T13:40:03Z</time>
      </trkpt>
      <trkpt lat="47.82994" lon="-3.88959">
        <ele>56</ele>
        <time>2016-05-11T13:40:18Z</time>
      </trkpt>
      <trkpt lat="47.82986" lon="-3.88937">
        <ele>54</ele>
        <time>2016-05-11T13:40:33Z</time>
      </trkpt>
      <trkpt lat="47.82975" lon="-3.88909">
        <ele>54</ele>
        <time>2016-05-11T13:40:51Z</time>
      </trkpt>
      <trkpt lat="47.8297" lon="-3.88885">
        <ele>53</ele>
        <time>2016-05-11T13:41:07Z</time>
      </trkpt>
      <trkpt lat="47.82967" lon="-3.88867">
        <ele>50</ele>
        <time>2016-05-11T13:41:18Z</time>
      </trkpt>
      <trkpt lat="47.82962" lon="-3.88849">
        <ele>50</ele>
        <time>2016-05-11T13:41:28Z</time>
      </trkpt>
      <trkpt lat="47.82956" lon="-3.88825">
        <ele>49</ele>
        <time>2016-05-11T13:41:44Z</time>
      </trkpt>
      <trkpt lat="47.82942" lon="-3.888">
        <ele>50</ele>
        <time>2016-05-11T13:42:02Z</time>
      </trkpt>
      <trkpt lat="47.82933" lon="-3.88775">
        <ele>50</ele>
        <time>2016-05-11T13:42:18Z</time>
      </trkpt>
      <trkpt lat="47.82921" lon="-3.88758">
        <ele>52</ele>
        <time>2016-05-11T13:42:30Z</time>
      </trkpt>
      <trkpt lat="47.82911" lon="-3.88746">
        <ele>52</ele>
        <time>2016-05-11T13:42:41Z</time>
      </trkpt>
      <trkpt lat="47.82898" lon="-3.88726">
        <ele>52</ele>
        <time>2016-05-11T13:42:56Z</time>
      </trkpt>
      <trkpt lat="47.82887" lon="-3.88708">
        <ele>48</ele>
        <time>2016-05-11T13:43:10Z</time>
      </trkpt>
      <trkpt lat="47.8288" lon="-3.88687">
        <ele>46</ele>
        <time>2016-05-11T13:43:25Z</time>
      </trkpt>
      <trkpt lat="47.82869" lon="-3.88664">
        <ele>48</ele>
        <time>2016-05-11T13:43:41Z</time>
      </trkpt>
      <trkpt lat="47.82855" lon="-3.88639">
        <ele>52</ele>
        <time>2016-05-11T13:43:58Z</time>
      </trkpt>
      <trkpt lat="47.82844" lon="-3.88615">
        <ele>51</ele>
        <time>2016-05-11T13:44:14Z</time>
      </trkpt>
      <trkpt lat="47.82832" lon="-3.88593">
        <ele>54</ele>
        <time>2016-05-11T13:44:31Z</time>
      </trkpt>
      <trkpt lat="47.8282" lon="-3.88574">
        <ele>51</ele>
        <time>2016-05-11T13:44:47Z</time>
      </trkpt>
      <trkpt lat="47.82807" lon="-3.88551">
        <ele>49</ele>
        <time>2016-05-11T13:45:05Z</time>
      </trkpt>
      <trkpt lat="47.82793" lon="-3.88534">
        <ele>52</ele>
        <time>2016-05-11T13:45:19Z</time>
      </trkpt>
      <trkpt lat="47.82782" lon="-3.88519">
        <ele>53</ele>
        <time>2016-05-11T13:45:33Z</time>
      </trkpt>
      <trkpt lat="47.82766" lon="-3.88505">
        <ele>51</ele>
        <time>2016-05-11T13:45:51Z</time>
      </trkpt>
      <trkpt lat="47.82751" lon="-3.88485">
        <ele>52</ele>
        <time>2016-05-11T13:46:10Z</time>
      </trkpt>
      <trkpt lat="47.82736" lon="-3.88469">
        <ele>53</ele>
        <time>2016-05-11T13:46:25Z</time>
      </trkpt>
      <trkpt lat="47.82727" lon="-3.88457">
        <ele>55</ele>
        <time>2016-05-11T13:46:38Z</time>
      </trkpt>
      <trkpt lat="47.82709" lon="-3.8845">
        <ele>53</ele>
        <time>2016-05-11T13:46:57Z</time>
      </trkpt>
      <trkpt lat="47.82691" lon="-3.88448">
        <ele>52</ele>
        <time>2016-05-11T13:47:18Z</time>
      </trkpt>
      <trkpt lat="47.82663" lon="-3.88454">
        <ele>54</ele>
        <time>2016-05-11T13:48:35Z</time>
      </trkpt>
      <trkpt lat="47.82638" lon="-3.88452">
        <ele>51</ele>
        <time>2016-05-11T13:49:58Z</time>
      </trkpt>
      <trkpt lat="47.82627" lon="-3.88445">
        <ele>55</ele>
        <time>2016-05-11T13:50:09Z</time>
      </trkpt>
      <trkpt lat="47.82612" lon="-3.88438">
        <ele>57</ele>
        <time>2016-05-11T13:50:25Z</time>
      </trkpt>
      <trkpt lat="47.82596" lon="-3.88428">
        <ele>59</ele>
        <time>2016-05-11T13:50:40Z</time>
      </trkpt>
      <trkpt lat="47.82575" lon="-3.88416">
        <ele>61</ele>
        <time>2016-05-11T13:50:58Z</time>
      </trkpt>
      <trkpt lat="47.82554" lon="-3.88407">
        <ele>64</ele>
        <time>2016-05-11T13:51:16Z</time>
      </trkpt>
      <trkpt lat="47.82542" lon="-3.88398">
        <ele>59</ele>
        <time>2016-05-11T13:51:28Z</time>
      </trkpt>
      <trkpt lat="47.82534" lon="-3.88382">
        <ele>58</ele>
        <time>2016-05-11T13:51:39Z</time>
      </trkpt>
      <trkpt lat="47.82527" lon="-3.88369">
        <ele>58</ele>
        <time>2016-05-11T13:51:49Z</time>
      </trkpt>
      <trkpt lat="47.82514" lon="-3.88355">
        <ele>56</ele>
        <time>2016-05-11T13:52:07Z</time>
      </trkpt>
      <trkpt lat="47.82496" lon="-3.88363">
        <ele>58</ele>
        <time>2016-05-11T13:52:25Z</time>
      </trkpt>
      <trkpt lat="47.82476" lon="-3.88358">
        <ele>55</ele>
        <time>2016-05-11T13:52:43Z</time>
      </trkpt>
      <trkpt lat="47.82454" lon="-3.88354">
        <ele>56</ele>
        <time>2016-05-11T13:53:03Z</time>
      </trkpt>
      <trkpt lat="47.82433" lon="-3.88351">
        <ele>58</ele>
        <time>2016-05-11T13:53:21Z</time>
      </trkpt>
      <trkpt lat="47.82417" lon="-3.88351">
        <ele>58</ele>
        <time>2016-05-11T13:53:35Z</time>
      </trkpt>
      <trkpt lat="47.82404" lon="-3.8835">
        <ele>57</ele>
        <time>2016-05-11T13:53:47Z</time>
      </trkpt>
      <trkpt lat="47.82388" lon="-3.88345">
        <ele>59</ele>
        <time>2016-05-11T13:54:00Z</time>
      </trkpt>
      <trkpt lat="47.82376" lon="-3.8833">
        <ele>56</ele>
        <time>2016-05-11T13:54:17Z</time>
      </trkpt>
      <trkpt lat="47.82376" lon="-3.8833">
        <ele>56</ele>
        <time>2016-05-11T13:56:42Z</time>
      </trkpt>
      <trkpt lat="47.82365" lon="-3.88298">
        <ele>54</ele>
        <time>2016-05-11T13:56:58Z</time>
      </trkpt>
      <trkpt lat="47.82357" lon="-3.88279">
        <ele>55</ele>
        <time>2016-05-11T13:57:15Z</time>
      </trkpt>
      <trkpt lat="47.82348" lon="-3.88256">
        <ele>55</ele>
        <time>2016-05-11T13:57:32Z</time>
      </trkpt>
      <trkpt lat="47.82345" lon="-3.88235">
        <ele>56</ele>
        <time>2016-05-11T13:57:46Z</time>
      </trkpt>
      <trkpt lat="47.82338" lon="-3.88211">
        <ele>53</ele>
        <time>2016-05-11T13:58:02Z</time>
      </trkpt>
      <trkpt lat="47.82335" lon="-3.88188">
        <ele>53</ele>
        <time>2016-05-11T13:58:15Z</time>
      </trkpt>
      <trkpt lat="47.82333" lon="-3.88168">
        <ele>54</ele>
        <time>2016-05-11T13:58:28Z</time>
      </trkpt>
      <trkpt lat="47.82328" lon="-3.88138">
        <ele>53</ele>
        <time>2016-05-11T13:58:47Z</time>
      </trkpt>
      <trkpt lat="47.82325" lon="-3.88112">
        <ele>54</ele>
        <time>2016-05-11T13:59:04Z</time>
      </trkpt>
      <trkpt lat="47.82317" lon="-3.88093">
        <ele>54</ele>
        <time>2016-05-11T13:59:20Z</time>
      </trkpt>
      <trkpt lat="47.8231" lon="-3.88074">
        <ele>55</ele>
        <time>2016-05-11T13:59:34Z</time>
      </trkpt>
      <trkpt lat="47.82305" lon="-3.88056">
        <ele>56</ele>
        <time>2016-05-11T13:59:47Z</time>
      </trkpt>
      <trkpt lat="47.82295" lon="-3.88035">
        <ele>56</ele>
        <time>2016-05-11T14:00:04Z</time>
      </trkpt>
      <trkpt lat="47.82282" lon="-3.88015">
        <ele>55</ele>
        <time>2016-05-11T14:00:22Z</time>
      </trkpt>
      <trkpt lat="47.8227" lon="-3.87995">
        <ele>57</ele>
        <time>2016-05-11T14:00:40Z</time>
      </trkpt>
      <trkpt lat="47.82258" lon="-3.87978">
        <ele>56</ele>
        <time>2016-05-11T14:00:56Z</time>
      </trkpt>
      <trkpt lat="47.82253" lon="-3.87958">
        <ele>51</ele>
        <time>2016-05-11T14:01:12Z</time>
      </trkpt>
      <trkpt lat="47.82245" lon="-3.87938">
        <ele>52</ele>
        <time>2016-05-11T14:01:26Z</time>
      </trkpt>
      <trkpt lat="47.82237" lon="-3.87924">
        <ele>51</ele>
        <time>2016-05-11T14:01:39Z</time>
      </trkpt>
      <trkpt lat="47.82227" lon="-3.8791">
        <ele>52</ele>
        <time>2016-05-11T14:01:53Z</time>
      </trkpt>
      <trkpt lat="47.82224" lon="-3.87908">
        <ele>53</ele>
        <time>2016-05-11T14:02:01Z</time>
      </trkpt>
      <trkpt lat="47.82237" lon="-3.87876">
        <ele>49</ele>
        <time>2016-05-11T14:03:10Z</time>
      </trkpt>
      <trkpt lat="47.82247" lon="-3.87854">
        <ele>47</ele>
        <time>2016-05-11T14:03:26Z</time>
      </trkpt>
      <trkpt lat="47.82259" lon="-3.87829">
        <ele>48</ele>
        <time>2016-05-11T14:03:43Z</time>
      </trkpt>
      <trkpt lat="47.82271" lon="-3.87807">
        <ele>50</ele>
        <time>2016-05-11T14:03:59Z</time>
      </trkpt>
      <trkpt lat="47.82284" lon="-3.87782">
        <ele>49</ele>
        <time>2016-05-11T14:04:18Z</time>
      </trkpt>
      <trkpt lat="47.82295" lon="-3.8776">
        <ele>51</ele>
        <time>2016-05-11T14:04:33Z</time>
      </trkpt>
      <trkpt lat="47.82307" lon="-3.87739">
        <ele>53</ele>
        <time>2016-05-11T14:04:47Z</time>
      </trkpt>
      <trkpt lat="47.82319" lon="-3.87714">
        <ele>57</ele>
        <time>2016-05-11T14:05:04Z</time>
      </trkpt>
      <trkpt lat="47.82325" lon="-3.87693">
        <ele>56</ele>
        <time>2016-05-11T14:05:19Z</time>
      </trkpt>
      <trkpt lat="47.82336" lon="-3.87666">
        <ele>55</ele>
        <time>2016-05-11T14:05:37Z</time>
      </trkpt>
      <trkpt lat="47.82341" lon="-3.87643">
        <ele>57</ele>
        <time>2016-05-11T14:05:49Z</time>
      </trkpt>
      <trkpt lat="47.82346" lon="-3.87622">
        <ele>57</ele>
        <time>2016-05-11T14:06:03Z</time>
      </trkpt>
      <trkpt lat="47.82356" lon="-3.87595">
        <ele>62</ele>
        <time>2016-05-11T14:06:23Z</time>
      </trkpt>
      <trkpt lat="47.82358" lon="-3.87568">
        <ele>57</ele>
        <time>2016-05-11T14:06:43Z</time>
      </trkpt>
      <trkpt lat="47.82356" lon="-3.87549">
        <ele>56</ele>
        <time>2016-05-11T14:06:53Z</time>
      </trkpt>
      <trkpt lat="47.82357" lon="-3.87545">
        <ele>56</ele>
        <time>2016-05-11T14:07:01Z</time>
      </trkpt>
      <trkpt lat="47.82358" lon="-3.87518">
        <ele>62</ele>
        <time>2016-05-11T14:08:12Z</time>
      </trkpt>
      <trkpt lat="47.82351" lon="-3.87499">
        <ele>61</ele>
        <time>2016-05-11T14:08:25Z</time>
      </trkpt>
      <trkpt lat="47.8235" lon="-3.87475">
        <ele>61</ele>
        <time>2016-05-11T14:08:40Z</time>
      </trkpt>
      <trkpt lat="47.82354" lon="-3.87453">
        <ele>58</ele>
        <time>2016-05-11T14:08:56Z</time>
      </trkpt>
      <trkpt lat="47.82361" lon="-3.87433">
        <ele>55</ele>
        <time>2016-05-11T14:09:12Z</time>
      </trkpt>
      <trkpt lat="47.82372" lon="-3.87413">
        <ele>56</ele>
        <time>2016-05-11T14:09:29Z</time>
      </trkpt>
      <trkpt lat="47.8238" lon="-3.87386">
        <ele>54</ele>
        <time>2016-05-11T14:09:46Z</time>
      </trkpt>
      <trkpt lat="47.82387" lon="-3.87357">
        <ele>54</ele>
        <time>2016-05-11T14:10:02Z</time>
      </trkpt>
      <trkpt lat="47.82395" lon="-3.87337">
        <ele>53</ele>
        <time>2016-05-11T14:10:15Z</time>
      </trkpt>
      <trkpt lat="47.82401" lon="-3.87304">
        <ele>53</ele>
        <time>2016-05-11T14:10:32Z</time>
      </trkpt>
      <trkpt lat="47.82408" lon="-3.87286">
        <ele>54</ele>
        <time>2016-05-11T14:10:50Z</time>
      </trkpt>
      <trkpt lat="47.82408" lon="-3.87286">
        <ele>54</ele>
        <time>2016-05-11T14:13:50Z</time>
      </trkpt>
      <trkpt lat="47.82417" lon="-3.87309">
        <ele>55</ele>
        <time>2016-05-11T14:14:01Z</time>
      </trkpt>
      <trkpt lat="47.82427" lon="-3.87338">
        <ele>56</ele>
        <time>2016-05-11T14:14:21Z</time>
      </trkpt>
      <trkpt lat="47.82431" lon="-3.87371">
        <ele>54</ele>
        <time>2016-05-11T14:14:41Z</time>
      </trkpt>
      <trkpt lat="47.82435" lon="-3.87405">
        <ele>58</ele>
        <time>2016-05-11T14:14:58Z</time>
      </trkpt>
      <trkpt lat="47.82447" lon="-3.87418">
        <ele>60</ele>
        <time>2016-05-11T14:15:12Z</time>
      </trkpt>
      <trkpt lat="47.82452" lon="-3.87419">
        <ele>59</ele>
        <time>2016-05-11T14:15:18Z</time>
      </trkpt>
      <trkpt lat="47.82462" lon="-3.87426">
        <ele>54</ele>
        <time>2016-05-11T14:15:30Z</time>
      </trkpt>
      <trkpt lat="47.82465" lon="-3.87427">
        <ele>54</ele>
        <time>2016-05-11T14:15:34Z</time>
      </trkpt>
      <trkpt lat="47.82462" lon="-3.87426">
        <ele>54</ele>
        <time>2016-05-11T14:15:42Z</time>
      </trkpt>
      <trkpt lat="47.82484" lon="-3.87437">
        <ele>60</ele>
        <time>2016-05-11T14:16:06Z</time>
      </trkpt>
      <trkpt lat="47.82489" lon="-3.87437">
        <ele>62</ele>
        <time>2016-05-11T14:16:13Z</time>
      </trkpt>
      <trkpt lat="47.82497" lon="-3.87444">
        <ele>59</ele>
        <time>2016-05-11T14:16:27Z</time>
      </trkpt>
      <trkpt lat="47.82505" lon="-3.8745">
        <ele>55</ele>
        <time>2016-05-11T14:16:38Z</time>
      </trkpt>
      <trkpt lat="47.8252" lon="-3.87459">
        <ele>51</ele>
        <time>2016-05-11T14:16:53Z</time>
      </trkpt>
      <trkpt lat="47.82536" lon="-3.87466">
        <ele>56</ele>
        <time>2016-05-11T14:17:04Z</time>
      </trkpt>
      <trkpt lat="47.8255" lon="-3.87472">
        <ele>58</ele>
        <time>2016-05-11T14:17:19Z</time>
      </trkpt>
      <trkpt lat="47.8257" lon="-3.87487">
        <ele>60</ele>
        <time>2016-05-11T14:17:38Z</time>
      </trkpt>
      <trkpt lat="47.82582" lon="-3.87489">
        <ele>59</ele>
        <time>2016-05-11T14:17:48Z</time>
      </trkpt>
      <trkpt lat="47.82595" lon="-3.875">
        <ele>59</ele>
        <time>2016-05-11T14:18:01Z</time>
      </trkpt>
      <trkpt lat="47.82607" lon="-3.8751">
        <ele>56</ele>
        <time>2016-05-11T14:18:16Z</time>
      </trkpt>
      <trkpt lat="47.82628" lon="-3.87523">
        <ele>45</ele>
        <time>2016-05-11T14:18:42Z</time>
      </trkpt>
      <trkpt lat="47.82648" lon="-3.87535">
        <ele>43</ele>
        <time>2016-05-11T14:18:59Z</time>
      </trkpt>
      <trkpt lat="47.82667" lon="-3.87548">
        <ele>50</ele>
        <time>2016-05-11T14:19:11Z</time>
      </trkpt>
      <trkpt lat="47.82672" lon="-3.87556">
        <ele>48</ele>
        <time>2016-05-11T14:19:17Z</time>
      </trkpt>
      <trkpt lat="47.82686" lon="-3.87569">
        <ele>48</ele>
        <time>2016-05-11T14:19:30Z</time>
      </trkpt>
      <trkpt lat="47.82704" lon="-3.87589">
        <ele>53</ele>
        <time>2016-05-11T14:19:47Z</time>
      </trkpt>
      <trkpt lat="47.82715" lon="-3.87597">
        <ele>56</ele>
        <time>2016-05-11T14:19:55Z</time>
      </trkpt>
      <trkpt lat="47.82727" lon="-3.87606">
        <ele>51</ele>
        <time>2016-05-11T14:20:06Z</time>
      </trkpt>
      <trkpt lat="47.8274" lon="-3.87617">
        <ele>42</ele>
        <time>2016-05-11T14:20:22Z</time>
      </trkpt>
      <trkpt lat="47.82751" lon="-3.87622">
        <ele>41</ele>
        <time>2016-05-11T14:20:33Z</time>
      </trkpt>
      <trkpt lat="47.82768" lon="-3.87632">
        <ele>45</ele>
        <time>2016-05-11T14:20:44Z</time>
      </trkpt>
      <trkpt lat="47.82781" lon="-3.87637">
        <ele>48</ele>
        <time>2016-05-11T14:20:54Z</time>
      </trkpt>
      <trkpt lat="47.82791" lon="-3.87643">
        <ele>52</ele>
        <time>2016-05-11T14:21:02Z</time>
      </trkpt>
      <trkpt lat="47.82797" lon="-3.8766">
        <ele>56</ele>
        <time>2016-05-11T14:21:15Z</time>
      </trkpt>
      <trkpt lat="47.82797" lon="-3.87679">
        <ele>54</ele>
        <time>2016-05-11T14:21:28Z</time>
      </trkpt>
      <trkpt lat="47.82793" lon="-3.87711">
        <ele>63</ele>
        <time>2016-05-11T14:21:45Z</time>
      </trkpt>
      <trkpt lat="47.82786" lon="-3.87728">
        <ele>54</ele>
        <time>2016-05-11T14:22:02Z</time>
      </trkpt>
      <trkpt lat="47.82777" lon="-3.87746">
        <ele>51</ele>
        <time>2016-05-11T14:22:15Z</time>
      </trkpt>
      <trkpt lat="47.82764" lon="-3.87761">
        <ele>40</ele>
        <time>2016-05-11T14:22:29Z</time>
      </trkpt>
      <trkpt lat="47.82751" lon="-3.87786">
        <ele>36</ele>
        <time>2016-05-11T14:22:43Z</time>
      </trkpt>
      <trkpt lat="47.8274" lon="-3.87817">
        <ele>52</ele>
        <time>2016-05-11T14:22:58Z</time>
      </trkpt>
      <trkpt lat="47.8273" lon="-3.87839">
        <ele>51</ele>
        <time>2016-05-11T14:23:13Z</time>
      </trkpt>
      <trkpt lat="47.82721" lon="-3.87854">
        <ele>49</ele>
        <time>2016-05-11T14:23:24Z</time>
      </trkpt>
      <trkpt lat="47.8271" lon="-3.87877">
        <ele>47</ele>
        <time>2016-05-11T14:23:37Z</time>
      </trkpt>
      <trkpt lat="47.82701" lon="-3.87897">
        <ele>54</ele>
        <time>2016-05-11T14:23:47Z</time>
      </trkpt>
      <trkpt lat="47.82692" lon="-3.87917">
        <ele>57</ele>
        <time>2016-05-11T14:23:58Z</time>
      </trkpt>
      <trkpt lat="47.82685" lon="-3.87933">
        <ele>57</ele>
        <time>2016-05-11T14:24:07Z</time>
      </trkpt>
      <trkpt lat="47.82676" lon="-3.8795">
        <ele>57</ele>
        <time>2016-05-11T14:24:18Z</time>
      </trkpt>
      <trkpt lat="47.82667" lon="-3.87966">
        <ele>55</ele>
        <time>2016-05-11T14:24:30Z</time>
      </trkpt>
      <trkpt lat="47.82659" lon="-3.87982">
        <ele>55</ele>
        <time>2016-05-11T14:24:41Z</time>
      </trkpt>
      <trkpt lat="47.82653" lon="-3.87994">
        <ele>56</ele>
        <time>2016-05-11T14:24:49Z</time>
      </trkpt>
      <trkpt lat="47.82642" lon="-3.88014">
        <ele>56</ele>
        <time>2016-05-11T14:25:03Z</time>
      </trkpt>
      <trkpt lat="47.82632" lon="-3.88036">
        <ele>55</ele>
        <time>2016-05-11T14:25:18Z</time>
      </trkpt>
      <trkpt lat="47.8262" lon="-3.88064">
        <ele>57</ele>
        <time>2016-05-11T14:25:34Z</time>
      </trkpt>
      <trkpt lat="47.82615" lon="-3.8808">
        <ele>57</ele>
        <time>2016-05-11T14:25:44Z</time>
      </trkpt>
      <trkpt lat="47.82604" lon="-3.88105">
        <ele>56</ele>
        <time>2016-05-11T14:26:00Z</time>
      </trkpt>
      <trkpt lat="47.82599" lon="-3.88121">
        <ele>55</ele>
        <time>2016-05-11T14:26:10Z</time>
      </trkpt>
      <trkpt lat="47.82593" lon="-3.88148">
        <ele>52</ele>
        <time>2016-05-11T14:26:25Z</time>
      </trkpt>
      <trkpt lat="47.82585" lon="-3.88174">
        <ele>52</ele>
        <time>2016-05-11T14:26:40Z</time>
      </trkpt>
      <trkpt lat="47.82577" lon="-3.88195">
        <ele>49</ele>
        <time>2016-05-11T14:26:54Z</time>
      </trkpt>
      <trkpt lat="47.82567" lon="-3.88219">
        <ele>47</ele>
        <time>2016-05-11T14:27:10Z</time>
      </trkpt>
      <trkpt lat="47.82552" lon="-3.88248">
        <ele>51</ele>
        <time>2016-05-11T14:27:28Z</time>
      </trkpt>
      <trkpt lat="47.82542" lon="-3.88274">
        <ele>51</ele>
        <time>2016-05-11T14:27:43Z</time>
      </trkpt>
      <trkpt lat="47.82534" lon="-3.883">
        <ele>52</ele>
        <time>2016-05-11T14:27:57Z</time>
      </trkpt>
      <trkpt lat="47.82527" lon="-3.88318">
        <ele>51</ele>
        <time>2016-05-11T14:28:09Z</time>
      </trkpt>
      <trkpt lat="47.82519" lon="-3.88334">
        <ele>49</ele>
        <time>2016-05-11T14:28:24Z</time>
      </trkpt>
      <trkpt lat="47.82519" lon="-3.88357">
        <ele>52</ele>
        <time>2016-05-11T14:28:40Z</time>
      </trkpt>
      <trkpt lat="47.8253" lon="-3.88377">
        <ele>54</ele>
        <time>2016-05-11T14:28:55Z</time>
      </trkpt>
      <trkpt lat="47.82538" lon="-3.88395">
        <ele>55</ele>
        <time>2016-05-11T14:29:07Z</time>
      </trkpt>
      <trkpt lat="47.82547" lon="-3.88407">
        <ele>57</ele>
        <time>2016-05-11T14:29:17Z</time>
      </trkpt>
      <trkpt lat="47.82562" lon="-3.88415">
        <ele>57</ele>
        <time>2016-05-11T14:29:31Z</time>
      </trkpt>
      <trkpt lat="47.82581" lon="-3.88426">
        <ele>56</ele>
        <time>2016-05-11T14:29:48Z</time>
      </trkpt>
      <trkpt lat="47.82594" lon="-3.88432">
        <ele>56</ele>
        <time>2016-05-11T14:29:59Z</time>
      </trkpt>
      <trkpt lat="47.8261" lon="-3.88437">
        <ele>56</ele>
        <time>2016-05-11T14:30:12Z</time>
      </trkpt>
      <trkpt lat="47.82629" lon="-3.88441">
        <ele>55</ele>
        <time>2016-05-11T14:30:27Z</time>
      </trkpt>
      <trkpt lat="47.82645" lon="-3.88445">
        <ele>53</ele>
        <time>2016-05-11T14:30:41Z</time>
      </trkpt>
      <trkpt lat="47.82669" lon="-3.88445">
        <ele>59</ele>
        <time>2016-05-11T14:30:57Z</time>
      </trkpt>
      <trkpt lat="47.82684" lon="-3.8844">
        <ele>60</ele>
        <time>2016-05-11T14:31:12Z</time>
      </trkpt>
      <trkpt lat="47.82701" lon="-3.88441">
        <ele>56</ele>
        <time>2016-05-11T14:31:35Z</time>
      </trkpt>
      <trkpt lat="47.82715" lon="-3.88446">
        <ele>55</ele>
        <time>2016-05-11T14:31:51Z</time>
      </trkpt>
      <trkpt lat="47.82729" lon="-3.88464">
        <ele>56</ele>
        <time>2016-05-11T14:32:09Z</time>
      </trkpt>
      <trkpt lat="47.82738" lon="-3.88474">
        <ele>55</ele>
        <time>2016-05-11T14:32:20Z</time>
      </trkpt>
      <trkpt lat="47.82755" lon="-3.88494">
        <ele>53</ele>
        <time>2016-05-11T14:32:39Z</time>
      </trkpt>
      <trkpt lat="47.82767" lon="-3.88509">
        <ele>52</ele>
        <time>2016-05-11T14:32:52Z</time>
      </trkpt>
      <trkpt lat="47.82782" lon="-3.88527">
        <ele>51</ele>
        <time>2016-05-11T14:33:11Z</time>
      </trkpt>
      <trkpt lat="47.8279" lon="-3.88536">
        <ele>52</ele>
        <time>2016-05-11T14:33:19Z</time>
      </trkpt>
      <trkpt lat="47.82798" lon="-3.88545">
        <ele>50</ele>
        <time>2016-05-11T14:33:29Z</time>
      </trkpt>
      <trkpt lat="47.82814" lon="-3.88569">
        <ele>50</ele>
        <time>2016-05-11T14:33:49Z</time>
      </trkpt>
      <trkpt lat="47.82825" lon="-3.88585">
        <ele>50</ele>
        <time>2016-05-11T14:34:05Z</time>
      </trkpt>
      <trkpt lat="47.82835" lon="-3.88609">
        <ele>51</ele>
        <time>2016-05-11T14:34:22Z</time>
      </trkpt>
      <trkpt lat="47.82847" lon="-3.88629">
        <ele>52</ele>
        <time>2016-05-11T14:34:37Z</time>
      </trkpt>
      <trkpt lat="47.82861" lon="-3.8865">
        <ele>52</ele>
        <time>2016-05-11T14:34:54Z</time>
      </trkpt>
      <trkpt lat="47.82876" lon="-3.88676">
        <ele>54</ele>
        <time>2016-05-11T14:35:13Z</time>
      </trkpt>
      <trkpt lat="47.82886" lon="-3.88699">
        <ele>54</ele>
        <time>2016-05-11T14:35:27Z</time>
      </trkpt>
      <trkpt lat="47.82891" lon="-3.88712">
        <ele>53</ele>
        <time>2016-05-11T14:35:35Z</time>
      </trkpt>
      <trkpt lat="47.82899" lon="-3.88726">
        <ele>54</ele>
        <time>2016-05-11T14:35:45Z</time>
      </trkpt>
      <trkpt lat="47.82909" lon="-3.88743">
        <ele>55</ele>
        <time>2016-05-11T14:36:00Z</time>
      </trkpt>
      <trkpt lat="47.82924" lon="-3.88761">
        <ele>53</ele>
        <time>2016-05-11T14:36:15Z</time>
      </trkpt>
      <trkpt lat="47.82933" lon="-3.88774">
        <ele>53</ele>
        <time>2016-05-11T14:36:28Z</time>
      </trkpt>
      <trkpt lat="47.82945" lon="-3.88791">
        <ele>52</ele>
        <time>2016-05-11T14:36:45Z</time>
      </trkpt>
      <trkpt lat="47.82958" lon="-3.88814">
        <ele>52</ele>
        <time>2016-05-11T14:37:01Z</time>
      </trkpt>
      <trkpt lat="47.82968" lon="-3.88832">
        <ele>52</ele>
        <time>2016-05-11T14:37:14Z</time>
      </trkpt>
      <trkpt lat="47.82978" lon="-3.88851">
        <ele>53</ele>
        <time>2016-05-11T14:37:27Z</time>
      </trkpt>
      <trkpt lat="47.82988" lon="-3.88876">
        <ele>51</ele>
        <time>2016-05-11T14:37:43Z</time>
      </trkpt>
      <trkpt lat="47.82999" lon="-3.88899">
        <ele>53</ele>
        <time>2016-05-11T14:37:59Z</time>
      </trkpt>
      <trkpt lat="47.83005" lon="-3.88916">
        <ele>54</ele>
        <time>2016-05-11T14:38:11Z</time>
      </trkpt>
      <trkpt lat="47.83018" lon="-3.88942">
        <ele>55</ele>
        <time>2016-05-11T14:38:28Z</time>
      </trkpt>
      <trkpt lat="47.83028" lon="-3.88965">
        <ele>56</ele>
        <time>2016-05-11T14:38:44Z</time>
      </trkpt>
      <trkpt lat="47.83035" lon="-3.88982">
        <ele>55</ele>
        <time>2016-05-11T14:38:53Z</time>
      </trkpt>
      <trkpt lat="47.83044" lon="-3.89003">
        <ele>56</ele>
        <time>2016-05-11T14:39:07Z</time>
      </trkpt>
      <trkpt lat="47.83053" lon="-3.89022">
        <ele>56</ele>
        <time>2016-05-11T14:39:19Z</time>
      </trkpt>
      <trkpt lat="47.83062" lon="-3.89044">
        <ele>54</ele>
        <time>2016-05-11T14:39:33Z</time>
      </trkpt>
      <trkpt lat="47.83068" lon="-3.89055">
        <ele>56</ele>
        <time>2016-05-11T14:39:41Z</time>
      </trkpt>
      <trkpt lat="47.83079" lon="-3.8907">
        <ele>55</ele>
        <time>2016-05-11T14:39:55Z</time>
      </trkpt>
      <trkpt lat="47.83096" lon="-3.89084">
        <ele>53</ele>
        <time>2016-05-11T14:40:13Z</time>
      </trkpt>
      <trkpt lat="47.83117" lon="-3.89093">
        <ele>53</ele>
        <time>2016-05-11T14:40:32Z</time>
      </trkpt>
      <trkpt lat="47.83134" lon="-3.89095">
        <ele>49</ele>
        <time>2016-05-11T14:40:45Z</time>
      </trkpt>
      <trkpt lat="47.83147" lon="-3.89094">
        <ele>50</ele>
        <time>2016-05-11T14:40:57Z</time>
      </trkpt>
      <trkpt lat="47.83166" lon="-3.89102">
        <ele>50</ele>
        <time>2016-05-11T14:41:12Z</time>
      </trkpt>
      <trkpt lat="47.83184" lon="-3.89119">
        <ele>50</ele>
        <time>2016-05-11T14:41:29Z</time>
      </trkpt>
      <trkpt lat="47.83202" lon="-3.89135">
        <ele>51</ele>
        <time>2016-05-11T14:41:44Z</time>
      </trkpt>
      <trkpt lat="47.83214" lon="-3.89148">
        <ele>53</ele>
        <time>2016-05-11T14:41:56Z</time>
      </trkpt>
      <trkpt lat="47.83225" lon="-3.89163">
        <ele>53</ele>
        <time>2016-05-11T14:42:09Z</time>
      </trkpt>
      <trkpt lat="47.83242" lon="-3.89182">
        <ele>54</ele>
        <time>2016-05-11T14:42:25Z</time>
      </trkpt>
      <trkpt lat="47.83257" lon="-3.89204">
        <ele>55</ele>
        <time>2016-05-11T14:42:41Z</time>
      </trkpt>
      <trkpt lat="47.8327" lon="-3.89221">
        <ele>53</ele>
        <time>2016-05-11T14:42:55Z</time>
      </trkpt>
      <trkpt lat="47.83281" lon="-3.89232">
        <ele>52</ele>
        <time>2016-05-11T14:43:06Z</time>
      </trkpt>
      <trkpt lat="47.83298" lon="-3.89247">
        <ele>53</ele>
        <time>2016-05-11T14:43:22Z</time>
      </trkpt>
      <trkpt lat="47.83314" lon="-3.89259">
        <ele>49</ele>
        <time>2016-05-11T14:43:40Z</time>
      </trkpt>
      <trkpt lat="47.83328" lon="-3.89271">
        <ele>40</ele>
        <time>2016-05-11T14:43:57Z</time>
      </trkpt>
      <trkpt lat="47.83348" lon="-3.89279">
        <ele>34</ele>
        <time>2016-05-11T14:44:17Z</time>
      </trkpt>
      <trkpt lat="47.83371" lon="-3.89261">
        <ele>40</ele>
        <time>2016-05-11T14:44:34Z</time>
      </trkpt>
      <trkpt lat="47.83388" lon="-3.89239">
        <ele>42</ele>
        <time>2016-05-11T14:44:51Z</time>
      </trkpt>
      <trkpt lat="47.83401" lon="-3.89226">
        <ele>42</ele>
        <time>2016-05-11T14:45:07Z</time>
      </trkpt>
      <trkpt lat="47.83423" lon="-3.89216">
        <ele>41</ele>
        <time>2016-05-11T14:45:26Z</time>
      </trkpt>
      <trkpt lat="47.83436" lon="-3.89202">
        <ele>43</ele>
        <time>2016-05-11T14:45:37Z</time>
      </trkpt>
      <trkpt lat="47.83443" lon="-3.89196">
        <ele>42</ele>
        <time>2016-05-11T14:45:43Z</time>
      </trkpt>
      <trkpt lat="47.83459" lon="-3.8918">
        <ele>41</ele>
        <time>2016-05-11T14:45:58Z</time>
      </trkpt>
      <trkpt lat="47.83474" lon="-3.89163">
        <ele>44</ele>
        <time>2016-05-11T14:46:12Z</time>
      </trkpt>
      <trkpt lat="47.83489" lon="-3.89145">
        <ele>46</ele>
        <time>2016-05-11T14:46:27Z</time>
      </trkpt>
      <trkpt lat="47.83502" lon="-3.89132">
        <ele>43</ele>
        <time>2016-05-11T14:46:45Z</time>
      </trkpt>
      <trkpt lat="47.8352" lon="-3.89109">
        <ele>49</ele>
        <time>2016-05-11T14:47:03Z</time>
      </trkpt>
      <trkpt lat="47.83539" lon="-3.89089">
        <ele>51</ele>
        <time>2016-05-11T14:47:21Z</time>
      </trkpt>
      <trkpt lat="47.83553" lon="-3.89075">
        <ele>54</ele>
        <time>2016-05-11T14:47:33Z</time>
      </trkpt>
      <trkpt lat="47.83571" lon="-3.89054">
        <ele>58</ele>
        <time>2016-05-11T14:47:48Z</time>
      </trkpt>
      <trkpt lat="47.83584" lon="-3.8904">
        <ele>58</ele>
        <time>2016-05-11T14:48:01Z</time>
      </trkpt>
      <trkpt lat="47.83594" lon="-3.89029">
        <ele>55</ele>
        <time>2016-05-11T14:48:13Z</time>
      </trkpt>
      <trkpt lat="47.83612" lon="-3.89006">
        <ele>57</ele>
        <time>2016-05-11T14:48:31Z</time>
      </trkpt>
      <trkpt lat="47.83618" lon="-3.88999">
        <ele>58</ele>
        <time>2016-05-11T14:48:38Z</time>
      </trkpt>
      <trkpt lat="47.83619" lon="-3.89">
        <ele>56</ele>
        <time>2016-05-11T14:48:44Z</time>
      </trkpt>
      <trkpt lat="47.83643" lon="-3.89019">
        <ele>55</ele>
        <time>2016-05-11T14:51:10Z</time>
      </trkpt>
      <trkpt lat="47.83667" lon="-3.89048">
        <ele>59</ele>
        <time>2016-05-11T14:51:51Z</time>
      </trkpt>
      <trkpt lat="47.83679" lon="-3.89066">
        <ele>58</ele>
        <time>2016-05-11T14:52:08Z</time>
      </trkpt>
      <trkpt lat="47.83692" lon="-3.8909">
        <ele>57</ele>
        <time>2016-05-11T14:52:25Z</time>
      </trkpt>
      <trkpt lat="47.83707" lon="-3.89108">
        <ele>56</ele>
        <time>2016-05-11T14:52:40Z</time>
      </trkpt>
      <trkpt lat="47.83723" lon="-3.89134">
        <ele>59</ele>
        <time>2016-05-11T14:52:59Z</time>
      </trkpt>
      <trkpt lat="47.83732" lon="-3.89153">
        <ele>58</ele>
        <time>2016-05-11T14:53:12Z</time>
      </trkpt>
      <trkpt lat="47.83744" lon="-3.89177">
        <ele>57</ele>
        <time>2016-05-11T14:53:28Z</time>
      </trkpt>
      <trkpt lat="47.8375" lon="-3.89194">
        <ele>56</ele>
        <time>2016-05-11T14:53:41Z</time>
      </trkpt>
      <trkpt lat="47.83758" lon="-3.89213">
        <ele>57</ele>
        <time>2016-05-11T14:53:55Z</time>
      </trkpt>
      <trkpt lat="47.83772" lon="-3.89236">
        <ele>59</ele>
        <time>2016-05-11T14:54:12Z</time>
      </trkpt>
      <trkpt lat="47.83784" lon="-3.89254">
        <ele>57</ele>
        <time>2016-05-11T14:54:26Z</time>
      </trkpt>
      <trkpt lat="47.83794" lon="-3.89271">
        <ele>55</ele>
        <time>2016-05-11T14:54:37Z</time>
      </trkpt>
      <trkpt lat="47.83806" lon="-3.89297">
        <ele>51</ele>
        <time>2016-05-11T14:54:54Z</time>
      </trkpt>
      <trkpt lat="47.83819" lon="-3.89315">
        <ele>50</ele>
        <time>2016-05-11T14:55:09Z</time>
      </trkpt>
      <trkpt lat="47.83837" lon="-3.89327">
        <ele>50</ele>
        <time>2016-05-11T14:55:26Z</time>
      </trkpt>
      <trkpt lat="47.83852" lon="-3.89341">
        <ele>53</ele>
        <time>2016-05-11T14:55:39Z</time>
      </trkpt>
      <trkpt lat="47.83863" lon="-3.89352">
        <ele>49</ele>
        <time>2016-05-11T14:55:51Z</time>
      </trkpt>
      <trkpt lat="47.83882" lon="-3.89365">
        <ele>49</ele>
        <time>2016-05-11T14:56:10Z</time>
      </trkpt>
      <trkpt lat="47.83904" lon="-3.8938">
        <ele>53</ele>
        <time>2016-05-11T14:56:29Z</time>
      </trkpt>
      <trkpt lat="47.83918" lon="-3.89392">
        <ele>49</ele>
        <time>2016-05-11T14:56:43Z</time>
      </trkpt>
      <trkpt lat="47.83939" lon="-3.89405">
        <ele>50</ele>
        <time>2016-05-11T14:56:59Z</time>
      </trkpt>
      <trkpt lat="47.83957" lon="-3.89412">
        <ele>51</ele>
        <time>2016-05-11T14:57:12Z</time>
      </trkpt>
      <trkpt lat="47.83972" lon="-3.89422">
        <ele>50</ele>
        <time>2016-05-11T14:57:27Z</time>
      </trkpt>
      <trkpt lat="47.8399" lon="-3.89433">
        <ele>49</ele>
        <time>2016-05-11T14:57:43Z</time>
      </trkpt>
      <trkpt lat="47.8401" lon="-3.89446">
        <ele>49</ele>
        <time>2016-05-11T14:58:01Z</time>
      </trkpt>
      <trkpt lat="47.84033" lon="-3.89459">
        <ele>52</ele>
        <time>2016-05-11T14:58:19Z</time>
      </trkpt>
      <trkpt lat="47.84041" lon="-3.89466">
        <ele>49</ele>
        <time>2016-05-11T14:58:29Z</time>
      </trkpt>
      <trkpt lat="47.84064" lon="-3.89477">
        <ele>51</ele>
        <time>2016-05-11T14:58:46Z</time>
      </trkpt>
      <trkpt lat="47.8408" lon="-3.89472">
        <ele>55</ele>
        <time>2016-05-11T14:58:59Z</time>
      </trkpt>
      <trkpt lat="47.84092" lon="-3.89451">
        <ele>57</ele>
        <time>2016-05-11T14:59:14Z</time>
      </trkpt>
      <trkpt lat="47.84105" lon="-3.8942">
        <ele>57</ele>
        <time>2016-05-11T14:59:34Z</time>
      </trkpt>
      <trkpt lat="47.84119" lon="-3.89392">
        <ele>60</ele>
        <time>2016-05-11T14:59:51Z</time>
      </trkpt>
      <trkpt lat="47.84131" lon="-3.89369">
        <ele>59</ele>
        <time>2016-05-11T15:00:07Z</time>
      </trkpt>
      <trkpt lat="47.84138" lon="-3.89345">
        <ele>57</ele>
        <time>2016-05-11T15:00:22Z</time>
      </trkpt>
      <trkpt lat="47.84142" lon="-3.89325">
        <ele>57</ele>
        <time>2016-05-11T15:00:36Z</time>
      </trkpt>
      <trkpt lat="47.84132" lon="-3.89307">
        <ele>56</ele>
        <time>2016-05-11T15:00:51Z</time>
      </trkpt>
      <trkpt lat="47.84121" lon="-3.89279">
        <ele>59</ele>
        <time>2016-05-11T15:01:09Z</time>
      </trkpt>
      <trkpt lat="47.84108" lon="-3.89251">
        <ele>59</ele>
        <time>2016-05-11T15:01:28Z</time>
      </trkpt>
      <trkpt lat="47.84089" lon="-3.89222">
        <ele>57</ele>
        <time>2016-05-11T15:01:49Z</time>
      </trkpt>
      <trkpt lat="47.84071" lon="-3.89206">
        <ele>59</ele>
        <time>2016-05-11T15:02:06Z</time>
      </trkpt>
      <trkpt lat="47.84052" lon="-3.89191">
        <ele>60</ele>
        <time>2016-05-11T15:02:22Z</time>
      </trkpt>
      <trkpt lat="47.84042" lon="-3.89187">
        <ele>62</ele>
        <time>2016-05-11T15:02:30Z</time>
      </trkpt>
      <trkpt lat="47.84033" lon="-3.89182">
        <ele>63</ele>
        <time>2016-05-11T15:02:42Z</time>
      </trkpt>
      <trkpt lat="47.8402" lon="-3.8917">
        <ele>61</ele>
        <time>2016-05-11T15:02:54Z</time>
      </trkpt>
      <trkpt lat="47.84021" lon="-3.89139">
        <ele>62</ele>
        <time>2016-05-11T15:03:10Z</time>
      </trkpt>
      <trkpt lat="47.84022" lon="-3.89111">
        <ele>65</ele>
        <time>2016-05-11T15:03:27Z</time>
      </trkpt>
      <trkpt lat="47.84022" lon="-3.89111">
        <ele>65</ele>
        <time>2016-05-11T15:03:34Z</time>
      </trkpt>
      <trkpt lat="47.84022" lon="-3.89111">
        <ele>65</ele>
        <time>2016-05-11T15:03:35Z</time>
      </trkpt>
      <trkpt lat="47.84022" lon="-3.89111">
        <ele>12</ele>
        <time>2016-05-11T15:03:43Z</time>
      </trkpt>
      <trkpt lat="47.84022" lon="-3.89111">
        <ele>12</ele>
        <time>2016-05-11T15:03:54Z</time>
      </trkpt>
    </trkseg>
  </trk>
</gpx>